Terminal Aerodrome Forecast
Issued by NWS Charleston, WV

Home | Current Version | Previous Version | Text Only | Print | Product List | Glossary On
Versions: 1 2 3 4 5 6 7 8 9 10 11 12 13 14 15 16 17 18 19 20 21
000
FTUS41 KRLX 270526
TAFHTS
TAF
KHTS 270526Z 2706/2806 00000KT P6SM SCT250
     FM271000 18004KT P6SM BKN050
     FM271700 22004KT 6SM SHRA BR VCTS OVC025CB
     FM271900 22004KT 3SM +SHRA VCTS OVC025CB
     FM280200 VRB03KT P6SM OVC025=

USA.gov is the U.S. government's official web portal to all federal, state and local government web resources and services.